Time;durP1;ratioP1;P1;durP2;ratioP2;P2;SDS_P1;SDS_P2;PMS_P1;PMS_P2;Temp;Humidity;BMP_temperature;BMP_pressure;BME280_temperature;BME280_humidity;BME280_pressure;Samples;Min_cycle;Max_cycle;Signal;HPM_P1;HPM_P2
2021/10/17 00:00:01;;;;;;;2.13;1.43;;;7.60;98.00;;;;;;5032961;28;20466;-66
2021/10/17 00:02:28;;;;;;;2.90;1.40;;;7.60;98.00;;;;;;5032740;28;20458;-66
2021/10/17 00:04:55;;;;;;;1.60;1.27;;;7.40;98.00;;;;;;5015327;28;20488;-65
2021/10/17 00:07:22;;;;;;;1.20;1.00;;;7.30;98.00;;;;;;5032587;28;20525;-66
2021/10/17 00:09:49;;;;;;;1.30;1.20;;;7.30;98.00;;;;;;5032723;28;20465;-66
2021/10/17 00:12:16;;;;;;;1.20;1.00;;;7.40;98.00;;;;;;5032739;28;20519;-66
2021/10/17 00:14:44;;;;;;;1.53;1.47;;;7.20;98.00;;;;;;5032804;28;20517;-67
2021/10/17 00:17:11;;;;;;;1.70;1.50;;;7.10;98.00;;;;;;5032522;28;20458;-66
2021/10/17 00:19:39;;;;;;;2.17;1.30;;;7.10;98.00;;;;;;5032468;28;20536;-66
2021/10/17 00:22:06;;;;;;;3.10;1.63;;;7.00;98.00;;;;;;5032503;28;20459;-66
2021/10/17 00:24:33;;;;;;;1.30;1.00;;;7.00;98.00;;;;;;5032509;28;20458;-66
2021/10/17 00:27:00;;;;;;;1.20;1.10;;;6.90;98.00;;;;;;5032268;28;20484;-65
2021/10/17 00:29:29;;;;;;;1.40;1.20;;;6.90;98.00;;;;;;5032255;28;20500;-66
2021/10/17 00:31:57;;;;;;;1.40;1.23;;;6.90;98.00;;;;;;5015011;28;20462;-65
2021/10/17 00:34:24;;;;;;;2.33;1.30;;;7.20;98.00;;;;;;5032297;28;20520;-65
2021/10/17 00:36:51;;;;;;;2.47;1.87;;;7.20;98.00;;;;;;5032221;28;20474;-65
2021/10/17 00:39:18;;;;;;;2.27;1.73;;;7.20;98.00;;;;;;5032226;28;20510;-66
2021/10/17 00:41:47;;;;;;;1.30;1.30;;;7.30;98.00;;;;;;5031996;28;20560;-66
2021/10/17 00:44:21;;;;;;;3.33;1.53;;;7.30;98.00;;;;;;5031698;28;20465;-66
2021/10/17 00:46:51;;;;;;;1.80;1.40;;;7.30;98.00;;;;;;5031905;28;20489;-65
2021/10/17 00:49:20;;;;;;;1.20;1.00;;;7.30;98.00;;;;;;5031657;28;20489;-67
2021/10/17 00:51:47;;;;;;;2.07;1.20;;;7.50;98.00;;;;;;5031914;28;20489;-65
2021/10/17 00:54:16;;;;;;;1.50;1.40;;;7.50;98.00;;;;;;5032039;28;20487;-66
2021/10/17 00:56:45;;;;;;;1.20;1.00;;;7.40;98.00;;;;;;5032143;28;20676;-66
2021/10/17 00:59:12;;;;;;;2.07;1.27;;;7.30;98.00;;;;;;5032356;28;20461;-66
2021/10/17 01:01:40;;;;;;;2.00;1.50;;;7.20;98.00;;;;;;5031850;28;20509;-66
2021/10/17 01:04:08;;;;;;;1.20;1.10;;;7.30;98.00;;;;;;5031799;28;20493;-66
2021/10/17 01:06:37;;;;;;;1.50;1.40;;;7.30;98.00;;;;;;5031674;28;20836;-66
2021/10/17 01:09:04;;;;;;;3.47;2.43;;;7.40;98.00;;;;;;5031681;28;20518;-65
2021/10/17 01:11:40;;;;;;;1.80;1.50;;;7.30;98.00;;;;;;5031567;28;20525;-66
2021/10/17 01:14:07;;;;;;;2.40;1.30;;;7.30;98.00;;;;;;5031578;28;20453;-66
2021/10/17 01:16:34;;;;;;;1.20;1.10;;;7.40;98.00;;;;;;5031576;28;20456;-65
2021/10/17 01:19:01;;;;;;;1.93;1.23;;;7.50;98.00;;;;;;5031833;28;20814;-66
2021/10/17 01:21:30;;;;;;;1.20;1.00;;;7.40;98.00;;;;;;5031325;28;20460;-65
2021/10/17 01:23:57;;;;;;;2.17;1.63;;;7.30;98.00;;;;;;5031499;28;20682;-66
2021/10/17 01:26:24;;;;;;;1.30;1.10;;;7.20;98.00;;;;;;5031227;28;20514;-66
2021/10/17 01:28:51;;;;;;;1.50;1.43;;;7.30;98.00;;;;;;5031319;28;20498;-65
2021/10/17 01:31:18;;;;;;;1.23;1.07;;;7.30;98.00;;;;;;5031189;28;20547;-66
2021/10/17 01:33:45;;;;;;;1.40;1.20;;;7.30;98.00;;;;;;5031437;28;20481;-65
2021/10/17 01:36:12;;;;;;;1.30;1.10;;;7.20;98.00;;;;;;5031282;28;20489;-66
2021/10/17 01:38:40;;;;;;;1.40;1.30;;;7.10;98.00;;;;;;5031173;28;20506;-66
2021/10/17 01:41:07;;;;;;;1.40;1.20;;;7.10;98.00;;;;;;5031378;28;20494;-66
2021/10/17 01:43:34;;;;;;;1.20;1.10;;;7.10;98.00;;;;;;5031315;28;20505;-65
2021/10/17 01:46:01;;;;;;;1.20;1.20;;;6.90;98.00;;;;;;5030939;28;20456;-66
2021/10/17 01:48:29;;;;;;;1.63;1.20;;;7.00;98.00;;;;;;5031019;28;20457;-65
2021/10/17 01:50:56;;;;;;;1.40;1.20;;;7.00;98.00;;;;;;5031243;28;20463;-65
2021/10/17 01:53:28;;;;;;;1.40;1.27;;;6.90;98.00;;;;;;5030983;28;20449;-66
2021/10/17 01:55:57;;;;;;;1.30;1.30;;;7.00;98.00;;;;;;5030259;28;20537;-65
2021/10/17 01:58:24;;;;;;;1.30;1.17;;;6.90;98.00;;;;;;5030483;28;20463;-66
2021/10/17 02:00:51;;;;;;;1.50;1.40;;;7.00;98.00;;;;;;5031263;28;20492;-65
2021/10/17 02:03:19;;;;;;;1.20;1.07;;;7.00;98.00;;;;;;5031123;28;20902;-65
2021/10/17 02:05:46;;;;;;;1.20;1.10;;;7.10;98.00;;;;;;5031010;28;20484;-66
2021/10/17 02:08:13;;;;;;;1.30;1.27;;;7.10;98.00;;;;;;5030821;28;20545;-66
2021/10/17 02:10:39;;;;;;;1.70;1.30;;;6.90;98.00;;;;;;5030858;28;20465;-66
2021/10/17 02:13:08;;;;;;;1.43;1.37;;;7.00;98.00;;;;;;5030963;28;20469;-65
2021/10/17 02:15:35;;;;;;;1.20;1.10;;;6.90;98.00;;;;;;5030976;28;20497;-66
2021/10/17 02:18:02;;;;;;;1.27;1.27;;;6.90;98.00;;;;;;5030852;28;20518;-65
2021/10/17 02:20:32;;;;;;;1.47;1.47;;;6.90;98.00;;;;;;5031061;28;20689;-66
2021/10/17 02:23:00;;;;;;;1.40;1.20;;;7.00;98.00;;;;;;5030980;28;20461;-66
2021/10/17 02:25:27;;;;;;;1.20;1.10;;;7.00;98.00;;;;;;5013280;28;20984;-66
2021/10/17 02:27:54;;;;;;;1.37;1.33;;;6.80;98.00;;;;;;5030670;28;20537;-66
2021/10/17 02:30:23;;;;;;;1.87;1.37;;;6.90;98.00;;;;;;5030868;28;20466;-65
2021/10/17 02:32:50;;;;;;;1.20;1.00;;;7.00;98.00;;;;;;5030743;28;20496;-65
2021/10/17 02:35:17;;;;;;;2.60;1.33;;;6.90;98.00;;;;;;5030783;28;20495;-65
2021/10/17 02:37:44;;;;;;;1.30;1.30;;;7.00;98.00;;;;;;5030558;28;20507;-66
2021/10/17 02:40:11;;;;;;;1.40;1.30;;;7.00;98.00;;;;;;5030598;28;20602;-66
2021/10/17 02:42:38;;;;;;;1.60;1.30;;;7.00;98.00;;;;;;5030530;28;20516;-65
2021/10/17 02:45:06;;;;;;;1.20;1.10;;;6.90;98.00;;;;;;5030570;28;20516;-66
2021/10/17 02:47:35;;;;;;;1.20;1.00;;;6.70;98.00;;;;;;5030509;28;21027;-66
2021/10/17 02:50:02;;;;;;;1.30;1.03;;;6.70;98.00;;;;;;5030572;28;20542;-66
2021/10/17 02:52:29;;;;;;;1.73;1.07;;;6.70;98.00;;;;;;5030457;28;20830;-65
2021/10/17 02:54:56;;;;;;;1.30;1.20;;;6.60;98.00;;;;;;5030547;28;21022;-65
2021/10/17 02:57:23;;;;;;;1.20;1.10;;;6.70;98.00;;;;;;5029611;28;21044;-65
2021/10/17 02:59:50;;;;;;;1.87;1.43;;;6.70;98.00;;;;;;5030522;28;20487;-65
2021/10/17 03:02:17;;;;;;;1.20;1.10;;;6.70;98.00;;;;;;5030304;28;21059;-65
2021/10/17 03:04:46;;;;;;;1.67;1.20;;;6.80;98.00;;;;;;5030420;28;21039;-65
2021/10/17 03:07:13;;;;;;;1.47;1.27;;;6.80;98.00;;;;;;5032511;28;20522;-65
2021/10/17 03:09:40;;;;;;;1.20;1.00;;;6.70;98.00;;;;;;5033922;28;20542;-66
2021/10/17 03:12:07;;;;;;;1.20;1.10;;;6.70;98.00;;;;;;5033855;28;20568;-66
2021/10/17 03:14:34;;;;;;;1.40;1.30;;;6.50;98.00;;;;;;5033608;28;20464;-66
2021/10/17 03:17:01;;;;;;;1.40;1.10;;;6.50;98.00;;;;;;5033949;28;20454;-65
2021/10/17 03:19:28;;;;;;;1.40;1.27;;;6.40;98.00;;;;;;5033926;28;20529;-66
2021/10/17 03:21:57;;;;;;;1.60;1.20;;;6.40;98.00;;;;;;5033708;28;20456;-66
2021/10/17 03:24:24;;;;;;;1.70;1.40;;;6.40;98.00;;;;;;5016132;28;20869;-65
2021/10/17 03:26:51;;;;;;;1.27;1.27;;;6.20;98.00;;;;;;5033637;28;20482;-65
2021/10/17 03:29:18;;;;;;;1.20;1.10;;;6.40;98.00;;;;;;5033675;28;20460;-66
2021/10/17 03:31:45;;;;;;;1.20;0.97;;;6.50;98.00;;;;;;5033466;28;20528;-65
2021/10/17 03:34:12;;;;;;;1.20;1.00;;;6.50;98.00;;;;;;5033367;28;20486;-65
2021/10/17 03:36:38;;;;;;;1.30;1.20;;;6.50;98.00;;;;;;5033513;28;20959;-66
2021/10/17 03:39:07;;;;;;;1.30;1.20;;;6.60;98.00;;;;;;5033637;28;20499;-65
2021/10/17 03:41:34;;;;;;;1.30;1.13;;;6.70;98.00;;;;;;5033377;28;20949;-66
2021/10/17 03:44:01;;;;;;;3.77;1.80;;;6.60;98.00;;;;;;5033706;28;20464;-66
2021/10/17 03:46:29;;;;;;;1.20;1.07;;;6.60;98.00;;;;;;5033199;28;20504;-65
2021/10/17 03:48:55;;;;;;;1.20;1.00;;;6.30;98.00;;;;;;5033276;28;20480;-65
2021/10/17 03:51:23;;;;;;;2.20;1.93;;;6.00;98.00;;;;;;5033151;28;20491;-66
2021/10/17 03:53:50;;;;;;;2.53;1.40;;;6.00;98.00;;;;;;5033511;28;20489;-66
2021/10/17 03:56:19;;;;;;;3.00;1.30;;;5.90;98.00;;;;;;5032944;28;20499;-65
2021/10/17 03:58:45;;;;;;;1.20;1.10;;;5.80;98.00;;;;;;5032975;28;20501;-66
2021/10/17 04:01:15;;;;;;;1.20;1.10;;;5.90;98.00;;;;;;5032973;28;20542;-66
2021/10/17 04:03:42;;;;;;;1.20;1.00;;;6.00;98.00;;;;;;5032858;28;20457;-65
2021/10/17 04:06:09;;;;;;;3.30;1.40;;;6.00;98.00;;;;;;5033001;28;20553;-66
2021/10/17 04:08:36;;;;;;;1.50;1.27;;;6.10;98.00;;;;;;5032728;28;20518;-66
2021/10/17 04:11:03;;;;;;;1.50;1.20;;;6.20;98.00;;;;;;5032704;28;20949;-65
2021/10/17 04:13:31;;;;;;;1.30;1.10;;;6.40;98.00;;;;;;5032647;28;20465;-65
2021/10/17 04:15:59;;;;;;;1.27;1.13;;;6.40;98.00;;;;;;5032789;28;20691;-65
2021/10/17 04:18:26;;;;;;;1.50;1.17;;;6.30;98.00;;;;;;5031813;28;20519;-65
2021/10/17 04:20:52;;;;;;;1.73;1.23;;;6.40;98.00;;;;;;5032566;28;20877;-65
2021/10/17 04:23:19;;;;;;;1.20;1.00;;;6.40;98.00;;;;;;5032716;28;20523;-65
2021/10/17 04:25:46;;;;;;;1.20;1.20;;;6.40;98.00;;;;;;5032368;28;20827;-65
2021/10/17 04:28:13;;;;;;;1.20;1.10;;;6.40;98.00;;;;;;5032018;28;20490;-66
2021/10/17 04:30:42;;;;;;;1.20;1.00;;;6.40;98.00;;;;;;5032382;28;20884;-65
2021/10/17 04:33:14;;;;;;;1.20;1.10;;;6.20;98.00;;;;;;5032250;28;20592;-66
2021/10/17 04:35:47;;;;;;;1.67;1.20;;;6.10;98.00;;;;;;5032345;28;21014;-65
2021/10/17 04:38:14;;;;;;;1.20;1.10;;;6.00;98.00;;;;;;5032317;28;20482;-65
2021/10/17 04:40:43;;;;;;;1.20;1.07;;;6.20;98.00;;;;;;5031861;28;20964;-66
2021/10/17 04:43:12;;;;;;;1.20;1.00;;;6.20;98.00;;;;;;5032214;28;20512;-65
2021/10/17 04:45:43;;;;;;;1.20;1.00;;;6.20;98.00;;;;;;5032050;28;20852;-65
2021/10/17 04:48:10;;;;;;;1.20;1.00;;;6.20;98.00;;;;;;5032018;28;21086;-65
2021/10/17 04:50:37;;;;;;;1.20;1.00;;;6.10;98.00;;;;;;5032011;28;20491;-65
2021/10/17 04:53:04;;;;;;;1.30;1.27;;;6.10;98.00;;;;;;5031857;28;20490;-65
2021/10/17 04:55:32;;;;;;;2.90;1.40;;;6.10;98.00;;;;;;5031893;28;20454;-65
2021/10/17 04:58:01;;;;;;;2.10;1.70;;;6.10;98.00;;;;;;5032042;28;20734;-65
2021/10/17 05:00:28;;;;;;;1.40;1.20;;;6.20;98.00;;;;;;5032072;28;20467;-65
2021/10/17 05:02:56;;;;;;;1.43;1.27;;;6.30;98.00;;;;;;5031950;28;20554;-65
2021/10/17 05:05:24;;;;;;;1.67;1.30;;;6.30;98.00;;;;;;5032040;28;20510;-66
2021/10/17 05:07:51;;;;;;;1.50;1.10;;;6.30;98.00;;;;;;5031738;28;20547;-65
2021/10/17 05:10:19;;;;;;;1.20;1.10;;;6.40;98.00;;;;;;5031790;28;20520;-65
2021/10/17 05:12:46;;;;;;;1.20;1.07;;;6.30;98.00;;;;;;5031359;28;20460;-66
2021/10/17 05:15:13;;;;;;;1.20;1.10;;;6.20;98.00;;;;;;5031574;28;20971;-65
2021/10/17 05:17:40;;;;;;;2.90;1.83;;;6.30;98.00;;;;;;5031444;28;20559;-66
2021/10/17 05:20:09;;;;;;;2.17;1.20;;;6.20;98.00;;;;;;5031475;28;20451;-66
2021/10/17 05:22:36;;;;;;;1.63;1.13;;;6.20;98.00;;;;;;5031544;28;20458;-65
2021/10/17 05:25:03;;;;;;;1.20;0.90;;;6.30;98.00;;;;;;5031459;28;20461;-65
2021/10/17 05:27:30;;;;;;;1.40;1.40;;;6.30;98.00;;;;;;5031153;28;20520;-65
2021/10/17 05:29:57;;;;;;;1.30;1.20;;;6.30;98.00;;;;;;5031311;28;20488;-66
2021/10/17 05:32:24;;;;;;;1.67;1.10;;;6.30;98.00;;;;;;5031245;28;20949;-66
2021/10/17 05:34:51;;;;;;;1.50;1.23;;;6.40;98.00;;;;;;5031209;28;20454;-66
2021/10/17 05:37:19;;;;;;;1.20;1.00;;;6.40;98.00;;;;;;5031634;28;20784;-66
2021/10/17 05:39:46;;;;;;;1.60;1.57;;;6.30;98.00;;;;;;5031366;28;20456;-66
2021/10/17 05:42:13;;;;;;;3.30;1.60;;;6.30;98.00;;;;;;5031129;28;20488;-66
2021/10/17 05:44:40;;;;;;;1.87;1.30;;;6.30;98.00;;;;;;5031271;28;20510;-66
2021/10/17 05:47:07;;;;;;;2.30;2.13;;;6.20;98.00;;;;;;5031065;28;21043;-66
2021/10/17 05:49:34;;;;;;;3.40;1.40;;;6.20;98.00;;;;;;5031072;28;20861;-65
2021/10/17 05:52:01;;;;;;;5.63;1.23;;;6.20;98.00;;;;;;5031223;28;20768;-65
2021/10/17 05:54:30;;;;;;;1.90;1.50;;;6.30;98.00;;;;;;5031282;28;20469;-65
2021/10/17 05:56:57;;;;;;;3.13;2.00;;;6.30;98.00;;;;;;5030749;28;20949;-65
2021/10/17 05:59:24;;;;;;;2.03;1.23;;;6.30;98.00;;;;;;5030906;28;20871;-65
2021/10/17 06:01:51;;;;;;;1.30;1.20;;;6.30;98.00;;;;;;5030835;28;20461;-66
2021/10/17 06:04:18;;;;;;;1.40;1.10;;;6.20;98.00;;;;;;5030966;28;20887;-66
2021/10/17 06:06:45;;;;;;;1.20;1.00;;;6.20;98.00;;;;;;5030771;28;20489;-65
2021/10/17 06:09:12;;;;;;;1.50;1.47;;;6.20;98.00;;;;;;5030941;28;20492;-66
2021/10/17 06:11:40;;;;;;;1.20;1.10;;;6.30;98.00;;;;;;5030809;28;20530;-65
2021/10/17 06:14:07;;;;;;;1.73;1.57;;;6.50;98.00;;;;;;5031014;28;20513;-65
2021/10/17 06:16:35;;;;;;;1.70;1.20;;;6.50;98.00;;;;;;5030901;28;20485;-66
2021/10/17 06:19:01;;;;;;;1.20;1.00;;;6.40;98.00;;;;;;5030827;28;20846;-66
2021/10/17 06:21:29;;;;;;;1.30;1.10;;;6.30;98.00;;;;;;5030664;28;20452;-65
2021/10/17 06:23:56;;;;;;;1.87;1.40;;;6.30;98.00;;;;;;5031252;28;20517;-65
2021/10/17 06:26:23;;;;;;;1.20;1.10;;;6.30;98.00;;;;;;5031152;28;21072;-66
2021/10/17 06:28:51;;;;;;;1.70;1.43;;;6.30;98.00;;;;;;5030867;28;20981;-65
2021/10/17 06:31:18;;;;;;;1.80;1.40;;;6.50;98.00;;;;;;5030954;28;20810;-65
2021/10/17 06:33:45;;;;;;;1.27;1.20;;;6.60;98.00;;;;;;5030604;28;20512;-65
2021/10/17 06:36:12;;;;;;;1.20;1.00;;;6.60;98.00;;;;;;5030766;28;20505;-65
2021/10/17 06:38:39;;;;;;;1.20;1.00;;;6.60;98.00;;;;;;5030549;28;20880;-66
2021/10/17 06:41:06;;;;;;;1.97;1.40;;;6.50;98.00;;;;;;5031473;28;20584;-65
2021/10/17 06:43:33;;;;;;;1.53;1.30;;;6.50;98.00;;;;;;5034336;28;20484;-65
2021/10/17 06:46:01;;;;;;;1.20;0.97;;;6.60;98.00;;;;;;5034346;28;20457;-65
2021/10/17 06:48:28;;;;;;;1.87;1.40;;;6.50;98.00;;;;;;5034124;28;20546;-65
2021/10/17 06:50:55;;;;;;;1.63;1.57;;;6.60;98.00;;;;;;5034302;28;20493;-66
2021/10/17 06:53:22;;;;;;;2.43;1.30;;;6.80;98.00;;;;;;5034179;28;20963;-65
2021/10/17 06:55:49;;;;;;;1.20;1.10;;;6.70;98.00;;;;;;5034279;28;20513;-66
2021/10/17 06:58:16;;;;;;;2.07;1.70;;;6.80;98.00;;;;;;5034278;28;20458;-65
2021/10/17 07:00:44;;;;;;;1.30;1.30;;;6.80;98.00;;;;;;5034019;28;20866;-66
2021/10/17 07:03:12;;;;;;;3.73;1.77;;;6.80;98.00;;;;;;5033992;28;20457;-65
2021/10/17 07:05:39;;;;;;;2.43;1.20;;;6.70;98.00;;;;;;5033584;28;21003;-65
2021/10/17 07:08:06;;;;;;;2.20;1.60;;;6.80;98.00;;;;;;5033856;28;20485;-65
2021/10/17 07:10:33;;;;;;;1.50;1.20;;;6.80;98.00;;;;;;5033789;28;20489;-65
2021/10/17 07:13:00;;;;;;;1.50;1.23;;;6.90;98.00;;;;;;5033804;28;20509;-66
2021/10/17 07:15:27;;;;;;;1.43;1.37;;;7.10;98.00;;;;;;5034005;28;20498;-65
2021/10/17 07:17:54;;;;;;;1.30;1.27;;;7.30;98.00;;;;;;5033862;28;20494;-65
2021/10/17 07:20:22;;;;;;;1.57;1.20;;;7.60;98.00;;;;;;5033823;28;20525;-65
2021/10/17 07:22:49;;;;;;;1.20;1.13;;;7.60;98.00;;;;;;5033910;28;20465;-65
2021/10/17 07:25:16;;;;;;;1.20;1.10;;;7.50;98.00;;;;;;5033728;28;20585;-65
2021/10/17 07:27:43;;;;;;;2.17;1.47;;;7.40;98.00;;;;;;5032989;28;21009;-66
2021/10/17 07:30:12;;;;;;;1.60;1.50;;;7.40;98.00;;;;;;5033707;28;20511;-65
2021/10/17 07:32:39;;;;;;;1.20;1.10;;;7.60;98.00;;;;;;5033515;28;20458;-65
2021/10/17 07:35:07;;;;;;;1.50;1.50;;;7.60;98.00;;;;;;5033572;28;20873;-65
2021/10/17 07:37:36;;;;;;;4.30;1.60;;;7.70;98.00;;;;;;5033410;28;20990;-65
2021/10/17 07:40:04;;;;;;;2.17;1.73;;;7.70;98.00;;;;;;5033414;28;20456;-66
2021/10/17 07:42:31;;;;;;;1.60;1.50;;;7.50;98.00;;;;;;5033413;28;20456;-65
2021/10/17 07:44:58;;;;;;;3.20;2.53;;;7.70;98.00;;;;;;5033577;28;20463;-65
2021/10/17 07:47:25;;;;;;;1.87;1.27;;;7.80;98.00;;;;;;5033317;28;20971;-64
2021/10/17 07:49:52;;;;;;;3.10;2.00;;;7.90;98.00;;;;;;5033313;28;20489;-65
2021/10/17 07:52:19;;;;;;;5.13;2.13;;;7.90;98.00;;;;;;5032439;28;20489;-65
2021/10/17 07:54:48;;;;;;;2.33;1.17;;;7.80;98.00;;;;;;5032972;28;20492;-64
2021/10/17 07:57:16;;;;;;;2.60;2.13;;;7.90;98.00;;;;;;5033088;28;20462;-65
2021/10/17 07:59:43;;;;;;;1.93;1.73;;;8.00;98.00;;;;;;5032924;28;20455;-65
2021/10/17 08:02:10;;;;;;;1.20;1.10;;;8.10;98.00;;;;;;5032866;28;20498;-65
2021/10/17 08:04:38;;;;;;;1.40;1.30;;;8.20;98.00;;;;;;5033086;28;20945;-65
2021/10/17 08:07:06;;;;;;;1.70;1.40;;;8.20;98.00;;;;;;5032947;28;20462;-64
2021/10/17 08:09:33;;;;;;;1.20;1.20;;;8.10;98.00;;;;;;5032782;28;21176;-64
2021/10/17 08:12:02;;;;;;;1.80;1.47;;;8.30;98.00;;;;;;5032652;28;20512;-65
2021/10/17 08:14:29;;;;;;;1.87;1.50;;;8.40;98.00;;;;;;5032834;28;20496;-65
2021/10/17 08:16:56;;;;;;;8.27;2.37;;;8.50;98.00;;;;;;5032520;28;20959;-65
2021/10/17 08:19:24;;;;;;;6.00;1.57;;;8.50;98.00;;;;;;5032600;28;20512;-65
2021/10/17 08:21:51;;;;;;;1.70;1.63;;;8.30;98.00;;;;;;5031499;28;20467;-65
2021/10/17 08:24:19;;;;;;;1.20;1.17;;;8.40;98.00;;;;;;5032383;28;20495;-65
2021/10/17 08:26:46;;;;;;;1.30;1.10;;;8.40;98.00;;;;;;5014576;28;20970;-65
2021/10/17 08:29:14;;;;;;;1.30;1.20;;;8.50;98.00;;;;;;5032131;28;20486;-65
2021/10/17 08:31:41;;;;;;;2.07;1.67;;;8.60;98.00;;;;;;5032340;28;20464;-65
2021/10/17 08:34:08;;;;;;;1.47;1.17;;;8.60;98.00;;;;;;5032413;28;20550;-64
2021/10/17 08:36:35;;;;;;;1.23;1.13;;;8.60;98.00;;;;;;5032354;28;20478;-66
2021/10/17 08:39:02;;;;;;;2.33;1.73;;;8.60;98.00;;;;;;5032254;28;20562;-64
2021/10/17 08:41:29;;;;;;;1.20;1.10;;;8.60;98.00;;;;;;5032195;28;20945;-65
2021/10/17 08:43:56;;;;;;;1.40;1.20;;;8.80;98.00;;;;;;5032339;28;20486;-65
2021/10/17 08:46:25;;;;;;;3.47;1.80;;;9.00;98.00;;;;;;5032092;28;20461;-65
2021/10/17 08:48:56;;;;;;;2.70;1.57;;;9.10;98.00;;;;;;5032045;28;20541;-65
2021/10/17 08:51:25;;;;;;;1.20;1.10;;;9.20;98.00;;;;;;5032033;28;20523;-64
2021/10/17 08:53:53;;;;;;;2.33;1.57;;;9.40;98.00;;;;;;5032325;28;20516;-65
2021/10/17 08:56:21;;;;;;;1.73;1.30;;;9.50;98.00;;;;;;5032199;28;20563;-65
2021/10/17 08:58:48;;;;;;;1.77;1.70;;;9.60;98.00;;;;;;5031822;28;21443;-66
2021/10/17 09:01:17;;;;;;;3.17;1.63;;;9.80;98.00;;;;;;5031901;28;20492;-65
2021/10/17 09:03:53;;;;;;;1.80;1.50;;;9.90;98.00;;;;;;5031371;28;20845;-66
2021/10/17 09:06:22;;;;;;;2.30;1.90;;;9.90;98.00;;;;;;5031864;28;20459;-66
2021/10/17 09:09:03;;;;;;;2.70;1.93;;;10.10;98.00;;;;;;5031645;28;20484;-66
2021/10/17 09:11:37;;;;;;;2.10;1.50;;;10.20;98.00;;;;;;5031892;28;20491;-66
2021/10/17 09:14:06;;;;;;;1.93;1.47;;;10.20;98.00;;;;;;5031700;28;20460;-65
2021/10/17 09:16:37;;;;;;;4.77;2.33;;;10.20;98.00;;;;;;5031648;28;20500;-66
2021/10/17 09:19:10;;;;;;;1.40;1.37;;;10.30;98.00;;;;;;5031377;28;20489;-66
2021/10/17 09:21:38;;;;;;;2.43;1.83;;;10.30;98.00;;;;;;5031579;28;20455;-66
2021/10/17 09:24:05;;;;;;;2.17;1.40;;;10.50;98.00;;;;;;5031433;28;20490;-66
2021/10/17 09:26:37;;;;;;;3.93;2.33;;;10.70;98.00;;;;;;5031497;28;20516;-65
2021/10/17 09:29:04;;;;;;;6.47;1.40;;;10.80;98.00;;;;;;5031267;28;21031;-66
2021/10/17 09:31:31;;;;;;;2.03;1.70;;;11.10;98.00;;;;;;5031683;28;20450;-65
2021/10/17 09:33:59;;;;;;;2.20;1.60;;;11.30;98.00;;;;;;5031202;28;20944;-65
2021/10/17 09:36:31;;;;;;;1.60;1.50;;;11.40;98.00;;;;;;5031387;28;20953;-66
2021/10/17 09:39:10;;;;;;;1.40;1.40;;;11.60;98.00;;;;;;5031286;28;20880;-66
2021/10/17 09:41:48;;;;;;;1.83;1.73;;;11.90;98.00;;;;;;5031325;28;20463;-65
2021/10/17 09:44:15;;;;;;;1.60;1.37;;;12.10;98.00;;;;;;5031251;28;20550;-66
2021/10/17 09:46:56;;;;;;;1.37;1.37;;;12.30;98.00;;;;;;5031132;28;20471;-66
2021/10/17 09:49:23;;;;;;;3.27;2.03;;;12.50;98.00;;;;;;5031088;28;20569;-66
2021/10/17 09:52:10;;;;;;;1.40;1.20;;;12.60;98.00;;;;;;5031357;28;20538;-66
2021/10/17 09:54:37;;;;;;;2.60;2.13;;;12.70;98.00;;;;;;5031207;28;20462;-66
2021/10/17 09:57:06;;;;;;;1.40;1.30;;;12.90;98.00;;;;;;5030831;28;20909;-66
2021/10/17 09:59:35;;;;;;;2.70;1.50;;;13.00;98.00;;;;;;5030860;28;20468;-66
2021/10/17 10:02:05;;;;;;;1.97;1.57;;;13.00;98.00;;;;;;5030836;28;20936;-66
2021/10/17 10:04:32;;;;;;;2.13;1.97;;;13.10;98.00;;;;;;5031011;28;20455;-66
2021/10/17 10:07:01;;;;;;;2.43;1.83;;;13.00;98.00;;;;;;5031082;28;20460;-65
2021/10/17 10:09:31;;;;;;;1.67;1.67;;;13.10;98.00;;;;;;5031037;28;20597;-66
2021/10/17 10:12:01;;;;;;;2.00;1.77;;;13.20;98.00;;;;;;5030889;28;20890;-66
2021/10/17 10:14:29;;;;;;;1.57;1.53;;;13.10;98.00;;;;;;5030805;28;20542;-66
2021/10/17 10:16:57;;;;;;;4.07;2.00;;;13.10;98.00;;;;;;5033106;28;20514;-66
2021/10/17 10:19:26;;;;;;;4.50;2.40;;;13.20;98.00;;;;;;5034827;28;20492;-66
2021/10/17 10:21:53;;;;;;;3.80;2.33;;;13.30;98.00;;;;;;5034961;28;20487;-66
2021/10/17 10:24:22;;;;;;;5.53;2.30;;;13.30;98.00;;;;;;5034863;28;21018;-66
2021/10/17 10:26:53;;;;;;;2.10;1.70;;;13.40;98.00;;;;;;5034934;28;20523;-67
2021/10/17 10:29:27;;;;;;;1.50;1.20;;;13.60;98.00;;;;;;5034786;28;20895;-67
2021/10/17 10:31:55;;;;;;;2.20;1.97;;;13.60;98.00;;;;;;5034821;28;20451;-67
2021/10/17 10:35:03;;;;;;;1.80;1.57;;;13.70;98.00;;;;;;5034882;28;20493;-66
2021/10/17 10:37:30;;;;;;;2.83;2.17;;;13.80;98.00;;;;;;5034614;28;20544;-66
2021/10/17 10:40:17;;;;;;;2.87;2.20;;;14.00;98.00;;;;;;5034641;28;20825;-66
2021/10/17 10:42:47;;;;;;;3.60;2.17;;;14.10;98.00;;;;;;5034342;28;20461;-66
2021/10/17 10:45:22;;;;;;;3.33;2.33;;;14.30;98.00;;;;;;5034369;28;20459;-66
2021/10/17 10:48:22;;;;;;;3.00;2.20;;;14.70;98.00;;;;;;5034193;28;20485;-66
2021/10/17 10:50:51;;;;;;;2.37;2.20;;;15.10;98.00;;;;;;5034347;28;20540;-66
2021/10/17 10:53:52;;;;;;;4.50;2.90;;;15.20;98.00;;;;;;5034407;28;20491;-66
2021/10/17 10:56:43;;;;;;;2.67;1.77;;;15.30;98.00;;;;;;5034382;28;20500;-66
2021/10/17 10:59:11;;;;;;;3.60;2.20;;;15.60;98.00;;;;;;5034192;28;20450;-66
2021/10/17 11:02:01;;;;;;;2.10;1.80;;;15.70;98.00;;;;;;5034266;28;20867;-67
2021/10/17 11:05:05;;;;;;;5.70;2.57;;;15.70;98.00;;;;;;5034273;28;20819;-66
2021/10/17 11:07:40;;;;;;;1.63;1.63;;;15.90;98.00;;;;;;5034053;28;20503;-66
2021/10/17 11:10:40;;;;;;;1.93;1.90;;;16.00;98.00;;;;;;5033525;28;20492;-67
2021/10/17 11:13:11;;;;;;;7.67;2.40;;;16.30;98.00;;;;;;5032020;28;20464;-67
2021/10/17 11:15:40;;;;;;;2.90;2.13;;;16.70;98.00;;;;;;5033823;28;20491;-67
2021/10/17 11:18:09;;;;;;;1.93;1.60;;;16.90;98.00;;;;;;5033809;28;20813;-67
2021/10/17 11:20:38;;;;;;;2.90;2.43;;;17.00;98.00;;;;;;5033747;28;20464;-66
2021/10/17 11:23:07;;;;;;;2.53;2.27;;;17.00;98.00;;;;;;5033591;28;20463;-66
2021/10/17 11:25:34;;;;;;;2.20;2.07;;;17.00;98.00;;;;;;5015995;28;20520;-66
2021/10/17 11:28:01;;;;;;;2.70;2.07;;;16.90;98.00;;;;;;5033240;28;20575;-66
2021/10/17 11:30:32;;;;;;;6.00;2.40;;;17.10;98.00;;;;;;5033526;28;20521;-66
2021/10/17 11:33:01;;;;;;;2.43;2.10;;;16.90;98.00;;;;;;5033458;28;20511;-67
2021/10/17 11:35:30;;;;;;;5.53;2.53;;;16.70;98.00;;;;;;5015834;28;20456;-67
2021/10/17 11:37:58;;;;;;;3.37;2.20;;;16.70;98.00;;;;;;5033495;28;20516;-66
2021/10/17 11:40:27;;;;;;;3.33;1.70;;;16.60;98.00;;;;;;5033450;28;20460;-67
2021/10/17 11:42:57;;;;;;;2.67;2.20;;;16.40;98.00;;;;;;5033338;28;20965;-67
2021/10/17 11:45:26;;;;;;;2.10;1.97;;;16.30;98.00;;;;;;5032754;28;20981;-67
2021/10/17 11:47:55;;;;;;;2.13;1.90;;;16.40;98.00;;;;;;5033440;28;20757;-67
2021/10/17 11:50:25;;;;;;;2.67;2.57;;;16.50;98.00;;;;;;5033297;28;21043;-67
2021/10/17 11:52:54;;;;;;;3.83;3.30;;;16.10;98.00;;;;;;5033458;28;20486;-66
2021/10/17 11:55:32;;;;;;;3.10;2.27;;;16.00;98.00;;;;;;5033471;28;20465;-67
2021/10/17 11:58:00;;;;;;;3.50;2.83;;;15.70;98.00;;;;;;5033144;28;20457;-66
2021/10/17 12:00:29;;;;;;;4.50;3.13;;;15.80;98.00;;;;;;5033268;28;20470;-67
2021/10/17 12:02:58;;;;;;;3.77;2.43;;;15.40;98.00;;;;;;5033313;28;20460;-66
2021/10/17 12:05:26;;;;;;;3.20;2.40;;;14.90;98.00;;;;;;5033072;28;20864;-67
2021/10/17 12:07:56;;;;;;;5.13;3.17;;;14.90;98.00;;;;;;5032866;28;20484;-67
2021/10/17 12:10:24;;;;;;;3.37;2.20;;;14.50;98.00;;;;;;5032860;28;20482;-66
2021/10/17 12:12:51;;;;;;;6.77;2.87;;;14.50;98.00;;;;;;5032855;28;20470;-66
2021/10/17 12:15:18;;;;;;;2.43;1.90;;;14.40;98.00;;;;;;5033074;28;20465;-67
2021/10/17 12:17:58;;;;;;;3.13;2.50;;;14.30;98.00;;;;;;5032649;28;20467;-66
2021/10/17 12:20:26;;;;;;;3.13;2.03;;;14.20;98.00;;;;;;5032705;28;20517;-66
2021/10/17 12:22:54;;;;;;;4.60;2.00;;;14.20;98.00;;;;;;5032727;28;20526;-67
2021/10/17 12:25:21;;;;;;;1.73;1.70;;;14.50;98.00;;;;;;5015144;28;20578;-66
2021/10/17 12:27:50;;;;;;;5.30;2.63;;;14.50;98.00;;;;;;5032476;28;20473;-66
2021/10/17 12:30:20;;;;;;;2.43;2.17;;;14.40;98.00;;;;;;5032451;28;20497;-66
2021/10/17 12:32:50;;;;;;;6.27;2.70;;;14.30;98.00;;;;;;5015206;28;20582;-66
2021/10/17 12:35:29;;;;;;;6.17;3.20;;;14.40;98.00;;;;;;5032421;28;20454;-67
2021/10/17 12:38:04;;;;;;;3.37;2.53;;;14.30;98.00;;;;;;5032242;28;20460;-66
2021/10/17 12:40:31;;;;;;;4.70;2.03;;;14.20;98.00;;;;;;5031969;28;20579;-66
2021/10/17 12:43:01;;;;;;;3.20;2.10;;;14.50;98.00;;;;;;5032120;28;20495;-67
2021/10/17 12:45:30;;;;;;;4.83;2.80;;;14.50;98.00;;;;;;5032167;28;20456;-66
2021/10/17 12:47:57;;;;;;;2.83;2.13;;;14.50;98.00;;;;;;5032098;28;20456;-66
2021/10/17 12:50:27;;;;;;;2.50;2.13;;;14.70;98.00;;;;;;5031471;28;20552;-66
2021/10/17 12:52:57;;;;;;;4.43;2.10;;;14.70;98.00;;;;;;5031941;28;20946;-66
2021/10/17 12:55:30;;;;;;;1.67;1.60;;;14.70;98.00;;;;;;5032117;28;20886;-66
2021/10/17 12:58:06;;;;;;;3.53;2.50;;;14.70;98.00;;;;;;5031892;28;20465;-66
2021/10/17 13:00:33;;;;;;;3.63;2.60;;;14.80;98.00;;;;;;5031984;28;20766;-66